sensor_id;sensor_type;location;lat;lon;timestamp;P1;durP1;ratioP1;P2;durP2;ratioP2
33188;SDS011;52601;53.070;10.600;2022-10-13T00:00:14;4.20;;;1.38;;
33188;SDS011;52601;53.070;10.600;2022-10-13T00:03:00;4.00;;;1.57;;
33188;SDS011;52601;53.070;10.600;2022-10-13T00:05:47;7.05;;;1.70;;
33188;SDS011;52601;53.070;10.600;2022-10-13T00:08:34;4.15;;;1.50;;
33188;SDS011;52601;53.070;10.600;2022-10-13T00:11:22;3.58;;;1.23;;
33188;SDS011;52601;53.070;10.600;2022-10-13T00:14:09;3.20;;;1.30;;
33188;SDS011;52601;53.070;10.600;2022-10-13T00:16:55;3.15;;;1.50;;
33188;SDS011;52601;53.070;10.600;2022-10-13T00:19:40;3.90;;;1.35;;
33188;SDS011;52601;53.070;10.600;2022-10-13T00:22:26;5.22;;;1.25;;
33188;SDS011;52601;53.070;10.600;2022-10-13T00:25:11;3.75;;;1.38;;
33188;SDS011;52601;53.070;10.600;2022-10-13T00:27:57;4.40;;;1.77;;
33188;SDS011;52601;53.070;10.600;2022-10-13T00:30:43;3.17;;;1.42;;
33188;SDS011;52601;53.070;10.600;2022-10-13T00:33:28;4.83;;;1.80;;
33188;SDS011;52601;53.070;10.600;2022-10-13T00:36:14;3.80;;;1.60;;
33188;SDS011;52601;53.070;10.600;2022-10-13T00:39:00;6.85;;;1.98;;
33188;SDS011;52601;53.070;10.600;2022-10-13T00:41:45;4.70;;;1.40;;
33188;SDS011;52601;53.070;10.600;2022-10-13T00:47:44;4.85;;;1.17;;
33188;SDS011;52601;53.070;10.600;2022-10-13T00:50:34;2.53;;;1.57;;
33188;SDS011;52601;53.070;10.600;2022-10-13T00:53:25;4.75;;;1.63;;
33188;SDS011;52601;53.070;10.600;2022-10-13T00:56:15;4.25;;;1.63;;
33188;SDS011;52601;53.070;10.600;2022-10-13T00:59:03;4.40;;;1.60;;
33188;SDS011;52601;53.070;10.600;2022-10-13T01:01:57;6.82;;;2.05;;
33188;SDS011;52601;53.070;10.600;2022-10-13T01:04:44;7.82;;;2.00;;
33188;SDS011;52601;53.070;10.600;2022-10-13T01:07:31;4.85;;;1.75;;
33188;SDS011;52601;53.070;10.600;2022-10-13T01:10:23;4.38;;;1.60;;
33188;SDS011;52601;53.070;10.600;2022-10-13T01:13:33;5.00;;;1.60;;
33188;SDS011;52601;53.070;10.600;2022-10-13T01:22:55;4.72;;;1.55;;
33188;SDS011;52601;53.070;10.600;2022-10-13T01:32:19;4.80;;;1.98;;
33188;SDS011;52601;53.070;10.600;2022-10-13T01:38:40;3.30;;;1.83;;
33188;SDS011;52601;53.070;10.600;2022-10-13T01:41:41;3.08;;;1.38;;
33188;SDS011;52601;53.070;10.600;2022-10-13T01:44:34;4.25;;;1.75;;
33188;SDS011;52601;53.070;10.600;2022-10-13T01:47:24;4.22;;;1.83;;
33188;SDS011;52601;53.070;10.600;2022-10-13T01:50:12;3.08;;;1.25;;
33188;SDS011;52601;53.070;10.600;2022-10-13T01:53:01;5.65;;;1.52;;
33188;SDS011;52601;53.070;10.600;2022-10-13T01:55:48;2.13;;;1.40;;
33188;SDS011;52601;53.070;10.600;2022-10-13T01:58:35;2.20;;;1.52;;
33188;SDS011;52601;53.070;10.600;2022-10-13T02:01:32;7.53;;;1.80;;
33188;SDS011;52601;53.070;10.600;2022-10-13T02:04:44;3.95;;;2.08;;
33188;SDS011;52601;53.070;10.600;2022-10-13T02:07:44;3.15;;;1.48;;
33188;SDS011;52601;53.070;10.600;2022-10-13T02:10:49;4.00;;;1.60;;
33188;SDS011;52601;53.070;10.600;2022-10-13T02:16:37;2.75;;;1.48;;
33188;SDS011;52601;53.070;10.600;2022-10-13T02:19:26;4.73;;;1.60;;
33188;SDS011;52601;53.070;10.600;2022-10-13T02:22:12;4.73;;;1.83;;
33188;SDS011;52601;53.070;10.600;2022-10-13T02:24:59;3.80;;;2.13;;
33188;SDS011;52601;53.070;10.600;2022-10-13T02:27:45;3.58;;;1.60;;
33188;SDS011;52601;53.070;10.600;2022-10-13T02:30:31;4.40;;;2.05;;
33188;SDS011;52601;53.070;10.600;2022-10-13T02:33:17;5.40;;;1.67;;
33188;SDS011;52601;53.070;10.600;2022-10-13T02:36:03;7.22;;;1.90;;
33188;SDS011;52601;53.070;10.600;2022-10-13T02:38:48;4.78;;;1.88;;
33188;SDS011;52601;53.070;10.600;2022-10-13T02:41:34;5.40;;;2.08;;
33188;SDS011;52601;53.070;10.600;2022-10-13T02:44:20;4.57;;;1.85;;
33188;SDS011;52601;53.070;10.600;2022-10-13T02:47:05;6.57;;;1.70;;
33188;SDS011;52601;53.070;10.600;2022-10-13T02:49:51;5.97;;;2.05;;
33188;SDS011;52601;53.070;10.600;2022-10-13T02:52:36;4.15;;;1.55;;
33188;SDS011;52601;53.070;10.600;2022-10-13T02:55:21;3.47;;;1.90;;
33188;SDS011;52601;53.070;10.600;2022-10-13T02:58:07;3.28;;;1.73;;
33188;SDS011;52601;53.070;10.600;2022-10-13T03:00:52;4.20;;;2.17;;
33188;SDS011;52601;53.070;10.600;2022-10-13T03:03:38;7.35;;;2.08;;
33188;SDS011;52601;53.070;10.600;2022-10-13T03:06:24;4.97;;;1.70;;
33188;SDS011;52601;53.070;10.600;2022-10-13T03:09:09;4.50;;;1.88;;
33188;SDS011;52601;53.070;10.600;2022-10-13T03:11:55;4.45;;;1.58;;
33188;SDS011;52601;53.070;10.600;2022-10-13T03:14:41;5.50;;;1.77;;
33188;SDS011;52601;53.070;10.600;2022-10-13T03:17:28;4.65;;;1.88;;
33188;SDS011;52601;53.070;10.600;2022-10-13T03:20:13;4.37;;;2.07;;
33188;SDS011;52601;53.070;10.600;2022-10-13T03:22:59;2.95;;;1.63;;
33188;SDS011;52601;53.070;10.600;2022-10-13T03:25:44;3.35;;;1.70;;
33188;SDS011;52601;53.070;10.600;2022-10-13T03:28:30;4.40;;;1.70;;
33188;SDS011;52601;53.070;10.600;2022-10-13T03:31:16;5.13;;;1.50;;
33188;SDS011;52601;53.070;10.600;2022-10-13T03:34:02;4.75;;;1.95;;
33188;SDS011;52601;53.070;10.600;2022-10-13T03:36:47;3.78;;;1.95;;
33188;SDS011;52601;53.070;10.600;2022-10-13T03:39:33;7.18;;;1.80;;
33188;SDS011;52601;53.070;10.600;2022-10-13T03:42:19;5.30;;;2.07;;
33188;SDS011;52601;53.070;10.600;2022-10-13T03:45:05;10.32;;;1.88;;
33188;SDS011;52601;53.070;10.600;2022-10-13T03:47:51;4.38;;;1.73;;
33188;SDS011;52601;53.070;10.600;2022-10-13T03:50:36;5.40;;;2.20;;
33188;SDS011;52601;53.070;10.600;2022-10-13T03:53:21;2.90;;;1.80;;
33188;SDS011;52601;53.070;10.600;2022-10-13T03:56:09;2.90;;;1.80;;
33188;SDS011;52601;53.070;10.600;2022-10-13T03:58:58;3.30;;;1.75;;
33188;SDS011;52601;53.070;10.600;2022-10-13T04:01:45;3.97;;;1.90;;
33188;SDS011;52601;53.070;10.600;2022-10-13T04:04:31;3.83;;;2.17;;
33188;SDS011;52601;53.070;10.600;2022-10-13T04:07:16;5.85;;;2.33;;
33188;SDS011;52601;53.070;10.600;2022-10-13T04:10:01;5.60;;;1.85;;
33188;SDS011;52601;53.070;10.600;2022-10-13T04:12:47;3.63;;;1.77;;
33188;SDS011;52601;53.070;10.600;2022-10-13T04:15:36;4.17;;;2.23;;
33188;SDS011;52601;53.070;10.600;2022-10-13T04:18:24;4.32;;;2.00;;
33188;SDS011;52601;53.070;10.600;2022-10-13T04:21:13;5.00;;;2.10;;
33188;SDS011;52601;53.070;10.600;2022-10-13T04:23:59;5.88;;;2.03;;
33188;SDS011;52601;53.070;10.600;2022-10-13T04:26:45;4.43;;;1.85;;
33188;SDS011;52601;53.070;10.600;2022-10-13T04:29:30;5.45;;;1.98;;
33188;SDS011;52601;53.070;10.600;2022-10-13T04:32:16;4.65;;;2.15;;
33188;SDS011;52601;53.070;10.600;2022-10-13T04:35:02;4.07;;;1.95;;
33188;SDS011;52601;53.070;10.600;2022-10-13T04:37:48;3.65;;;1.80;;
33188;SDS011;52601;53.070;10.600;2022-10-13T04:40:34;4.10;;;1.95;;
33188;SDS011;52601;53.070;10.600;2022-10-13T04:43:19;11.07;;;2.87;;
33188;SDS011;52601;53.070;10.600;2022-10-13T04:46:06;4.32;;;1.70;;
33188;SDS011;52601;53.070;10.600;2022-10-13T04:48:55;7.22;;;2.35;;
33188;SDS011;52601;53.070;10.600;2022-10-13T04:51:41;3.40;;;1.73;;
33188;SDS011;52601;53.070;10.600;2022-10-13T04:54:26;4.53;;;2.13;;
33188;SDS011;52601;53.070;10.600;2022-10-13T04:57:12;6.32;;;2.40;;
33188;SDS011;52601;53.070;10.600;2022-10-13T04:59:57;3.20;;;1.85;;
33188;SDS011;52601;53.070;10.600;2022-10-13T05:02:43;6.33;;;2.33;;
33188;SDS011;52601;53.070;10.600;2022-10-13T05:05:28;4.38;;;2.38;;
33188;SDS011;52601;53.070;10.600;2022-10-13T05:08:14;4.43;;;2.17;;
33188;SDS011;52601;53.070;10.600;2022-10-13T05:11:00;4.13;;;1.92;;
33188;SDS011;52601;53.070;10.600;2022-10-13T05:13:47;6.38;;;2.50;;
33188;SDS011;52601;53.070;10.600;2022-10-13T05:16:33;5.32;;;2.17;;
33188;SDS011;52601;53.070;10.600;2022-10-13T05:19:19;6.45;;;2.90;;
33188;SDS011;52601;53.070;10.600;2022-10-13T05:22:04;5.75;;;2.33;;
33188;SDS011;52601;53.070;10.600;2022-10-13T05:24:50;3.50;;;2.28;;
33188;SDS011;52601;53.070;10.600;2022-10-13T05:27:35;5.78;;;2.20;;
33188;SDS011;52601;53.070;10.600;2022-10-13T05:30:21;4.47;;;2.27;;
33188;SDS011;52601;53.070;10.600;2022-10-13T05:33:06;4.65;;;2.00;;
33188;SDS011;52601;53.070;10.600;2022-10-13T05:35:52;6.07;;;2.33;;
33188;SDS011;52601;53.070;10.600;2022-10-13T05:38:37;5.07;;;2.65;;
33188;SDS011;52601;53.070;10.600;2022-10-13T05:41:24;15.02;;;2.67;;
33188;SDS011;52601;53.070;10.600;2022-10-13T05:44:11;4.38;;;2.05;;
33188;SDS011;52601;53.070;10.600;2022-10-13T05:46:56;5.13;;;2.28;;
33188;SDS011;52601;53.070;10.600;2022-10-13T05:49:42;7.57;;;2.97;;
33188;SDS011;52601;53.070;10.600;2022-10-13T05:52:28;5.73;;;2.27;;
33188;SDS011;52601;53.070;10.600;2022-10-13T05:55:17;8.60;;;2.35;;
33188;SDS011;52601;53.070;10.600;2022-10-13T05:58:03;4.90;;;2.40;;
33188;SDS011;52601;53.070;10.600;2022-10-13T06:00:49;4.95;;;2.75;;
33188;SDS011;52601;53.070;10.600;2022-10-13T06:03:35;3.37;;;2.00;;
33188;SDS011;52601;53.070;10.600;2022-10-13T06:06:22;4.07;;;2.25;;
33188;SDS011;52601;53.070;10.600;2022-10-13T06:09:15;6.72;;;2.70;;
33188;SDS011;52601;53.070;10.600;2022-10-13T06:12:03;5.15;;;2.58;;
33188;SDS011;52601;53.070;10.600;2022-10-13T06:14:49;4.05;;;2.50;;
33188;SDS011;52601;53.070;10.600;2022-10-13T06:17:35;7.00;;;2.80;;
33188;SDS011;52601;53.070;10.600;2022-10-13T06:20:22;7.40;;;2.90;;
33188;SDS011;52601;53.070;10.600;2022-10-13T06:23:08;3.93;;;2.37;;
33188;SDS011;52601;53.070;10.600;2022-10-13T06:25:53;5.72;;;2.65;;
33188;SDS011;52601;53.070;10.600;2022-10-13T06:28:39;6.30;;;2.80;;
33188;SDS011;52601;53.070;10.600;2022-10-13T06:31:24;4.07;;;2.40;;
33188;SDS011;52601;53.070;10.600;2022-10-13T06:34:10;4.37;;;2.23;;
33188;SDS011;52601;53.070;10.600;2022-10-13T06:36:56;4.90;;;2.63;;
33188;SDS011;52601;53.070;10.600;2022-10-13T06:39:42;8.20;;;2.75;;
33188;SDS011;52601;53.070;10.600;2022-10-13T06:42:27;5.28;;;2.88;;
33188;SDS011;52601;53.070;10.600;2022-10-13T06:45:16;4.10;;;2.40;;
33188;SDS011;52601;53.070;10.600;2022-10-13T06:48:03;4.55;;;2.47;;
33188;SDS011;52601;53.070;10.600;2022-10-13T06:50:48;6.97;;;2.70;;
33188;SDS011;52601;53.070;10.600;2022-10-13T06:53:34;6.07;;;3.00;;
33188;SDS011;52601;53.070;10.600;2022-10-13T06:56:20;11.55;;;3.20;;
33188;SDS011;52601;53.070;10.600;2022-10-13T06:59:05;6.65;;;3.10;;
33188;SDS011;52601;53.070;10.600;2022-10-13T07:01:51;5.30;;;2.35;;
33188;SDS011;52601;53.070;10.600;2022-10-13T07:04:37;4.72;;;2.20;;
33188;SDS011;52601;53.070;10.600;2022-10-13T07:07:23;6.00;;;2.27;;
33188;SDS011;52601;53.070;10.600;2022-10-13T07:10:09;4.72;;;2.58;;
33188;SDS011;52601;53.070;10.600;2022-10-13T07:12:54;7.97;;;2.50;;
33188;SDS011;52601;53.070;10.600;2022-10-13T07:15:41;5.43;;;2.63;;
33188;SDS011;52601;53.070;10.600;2022-10-13T07:18:26;4.95;;;2.50;;
33188;SDS011;52601;53.070;10.600;2022-10-13T07:21:12;4.85;;;2.55;;
33188;SDS011;52601;53.070;10.600;2022-10-13T07:23:57;9.95;;;2.70;;
33188;SDS011;52601;53.070;10.600;2022-10-13T07:26:43;5.70;;;2.40;;
33188;SDS011;52601;53.070;10.600;2022-10-13T07:29:29;6.40;;;2.60;;
33188;SDS011;52601;53.070;10.600;2022-10-13T07:32:15;3.38;;;2.30;;
33188;SDS011;52601;53.070;10.600;2022-10-13T07:35:01;6.78;;;2.88;;
33188;SDS011;52601;53.070;10.600;2022-10-13T07:37:46;5.55;;;2.85;;
33188;SDS011;52601;53.070;10.600;2022-10-13T07:40:32;6.85;;;2.75;;
33188;SDS011;52601;53.070;10.600;2022-10-13T07:43:17;12.23;;;3.20;;
33188;SDS011;52601;53.070;10.600;2022-10-13T07:46:03;7.03;;;2.92;;
33188;SDS011;52601;53.070;10.600;2022-10-13T07:48:50;7.70;;;3.07;;
33188;SDS011;52601;53.070;10.600;2022-10-13T07:51:37;9.95;;;2.88;;
33188;SDS011;52601;53.070;10.600;2022-10-13T07:54:23;8.83;;;3.20;;
33188;SDS011;52601;53.070;10.600;2022-10-13T07:57:11;4.80;;;3.23;;
33188;SDS011;52601;53.070;10.600;2022-10-13T07:59:57;5.25;;;2.80;;
33188;SDS011;52601;53.070;10.600;2022-10-13T08:02:42;5.53;;;3.33;;
33188;SDS011;52601;53.070;10.600;2022-10-13T08:05:28;4.07;;;2.80;;
33188;SDS011;52601;53.070;10.600;2022-10-13T08:08:14;6.25;;;3.10;;
33188;SDS011;52601;53.070;10.600;2022-10-13T08:11:03;10.68;;;3.40;;
33188;SDS011;52601;53.070;10.600;2022-10-13T08:13:51;7.80;;;2.87;;
33188;SDS011;52601;53.070;10.600;2022-10-13T08:16:37;6.75;;;3.42;;
33188;SDS011;52601;53.070;10.600;2022-10-13T08:19:24;6.03;;;3.20;;
33188;SDS011;52601;53.070;10.600;2022-10-13T08:22:11;6.07;;;2.85;;
33188;SDS011;52601;53.070;10.600;2022-10-13T08:24:56;7.45;;;3.55;;
33188;SDS011;52601;53.070;10.600;2022-10-13T08:27:42;14.27;;;3.90;;
33188;SDS011;52601;53.070;10.600;2022-10-13T08:30:36;5.93;;;3.33;;
33188;SDS011;52601;53.070;10.600;2022-10-13T08:33:22;5.85;;;3.22;;
33188;SDS011;52601;53.070;10.600;2022-10-13T08:36:08;9.18;;;3.28;;
33188;SDS011;52601;53.070;10.600;2022-10-13T08:38:54;6.55;;;2.95;;
33188;SDS011;52601;53.070;10.600;2022-10-13T08:41:40;5.55;;;2.83;;
33188;SDS011;52601;53.070;10.600;2022-10-13T08:45:04;12.10;;;3.00;;
33188;SDS011;52601;53.070;10.600;2022-10-13T08:48:04;6.07;;;3.03;;
33188;SDS011;52601;53.070;10.600;2022-10-13T08:50:57;6.90;;;3.08;;
33188;SDS011;52601;53.070;10.600;2022-10-13T08:53:45;6.82;;;3.05;;
33188;SDS011;52601;53.070;10.600;2022-10-13T08:56:33;7.68;;;3.22;;
33188;SDS011;52601;53.070;10.600;2022-10-13T08:59:19;5.28;;;2.92;;
33188;SDS011;52601;53.070;10.600;2022-10-13T09:02:13;5.68;;;3.08;;
33188;SDS011;52601;53.070;10.600;2022-10-13T09:05:09;8.90;;;2.95;;
33188;SDS011;52601;53.070;10.600;2022-10-13T09:08:00;8.57;;;3.17;;
33188;SDS011;52601;53.070;10.600;2022-10-13T09:10:47;9.88;;;3.25;;
33188;SDS011;52601;53.070;10.600;2022-10-13T09:13:34;5.65;;;2.80;;
33188;SDS011;52601;53.070;10.600;2022-10-13T09:16:27;7.40;;;3.03;;
33188;SDS011;52601;53.070;10.600;2022-10-13T09:22:33;7.18;;;3.53;;
33188;SDS011;52601;53.070;10.600;2022-10-13T09:25:20;5.55;;;2.90;;
33188;SDS011;52601;53.070;10.600;2022-10-13T09:28:13;11.30;;;3.60;;
33188;SDS011;52601;53.070;10.600;2022-10-13T09:34:12;6.80;;;2.83;;
33188;SDS011;52601;53.070;10.600;2022-10-13T09:37:05;7.70;;;2.90;;
33188;SDS011;52601;53.070;10.600;2022-10-13T09:40:01;4.85;;;2.42;;
33188;SDS011;52601;53.070;10.600;2022-10-13T09:42:59;8.25;;;3.25;;
33188;SDS011;52601;53.070;10.600;2022-10-13T09:45:46;5.95;;;3.28;;
33188;SDS011;52601;53.070;10.600;2022-10-13T09:48:34;6.93;;;2.95;;
33188;SDS011;52601;53.070;10.600;2022-10-13T09:54:26;4.75;;;2.90;;
33188;SDS011;52601;53.070;10.600;2022-10-13T10:00:28;8.90;;;3.03;;
33188;SDS011;52601;53.070;10.600;2022-10-13T10:03:28;7.18;;;2.75;;
33188;SDS011;52601;53.070;10.600;2022-10-13T10:06:18;8.20;;;3.10;;
33188;SDS011;52601;53.070;10.600;2022-10-13T10:09:13;15.90;;;2.93;;
33188;SDS011;52601;53.070;10.600;2022-10-13T10:12:03;5.95;;;2.85;;
33188;SDS011;52601;53.070;10.600;2022-10-13T10:14:49;7.25;;;3.28;;
33188;SDS011;52601;53.070;10.600;2022-10-13T10:17:54;9.43;;;2.65;;
33188;SDS011;52601;53.070;10.600;2022-10-13T10:24:15;4.95;;;3.00;;
33188;SDS011;52601;53.070;10.600;2022-10-13T10:27:20;5.68;;;3.00;;
33188;SDS011;52601;53.070;10.600;2022-10-13T10:30:27;6.15;;;2.60;;
33188;SDS011;52601;53.070;10.600;2022-10-13T10:33:17;4.95;;;2.47;;
33188;SDS011;52601;53.070;10.600;2022-10-13T10:39:18;4.20;;;2.58;;
33188;SDS011;52601;53.070;10.600;2022-10-13T10:42:46;6.10;;;2.30;;
33188;SDS011;52601;53.070;10.600;2022-10-13T10:45:37;7.32;;;2.95;;
33188;SDS011;52601;53.070;10.600;2022-10-13T10:48:24;4.50;;;1.93;;
33188;SDS011;52601;53.070;10.600;2022-10-13T10:51:16;4.85;;;2.17;;
33188;SDS011;52601;53.070;10.600;2022-10-13T10:54:16;3.10;;;2.20;;
33188;SDS011;52601;53.070;10.600;2022-10-13T11:00:05;8.38;;;2.58;;
33188;SDS011;52601;53.070;10.600;2022-10-13T11:06:31;7.45;;;2.30;;
33188;SDS011;52601;53.070;10.600;2022-10-13T11:09:40;5.53;;;2.10;;
33188;SDS011;52601;53.070;10.600;2022-10-13T11:12:26;5.63;;;1.90;;
33188;SDS011;52601;53.070;10.600;2022-10-13T11:15:42;5.38;;;2.17;;
33188;SDS011;52601;53.070;10.600;2022-10-13T11:30:40;3.25;;;1.83;;
33188;SDS011;52601;53.070;10.600;2022-10-13T11:54:48;2.30;;;1.48;;
33188;SDS011;52601;53.070;10.600;2022-10-13T11:57:38;5.60;;;1.92;;
33188;SDS011;52601;53.070;10.600;2022-10-13T12:00:24;4.88;;;1.98;;
33188;SDS011;52601;53.070;10.600;2022-10-13T12:03:17;3.88;;;1.90;;
33188;SDS011;52601;53.070;10.600;2022-10-13T12:06:06;6.53;;;2.15;;
33188;SDS011;52601;53.070;10.600;2022-10-13T12:09:18;5.07;;;2.60;;
33188;SDS011;52601;53.070;10.600;2022-10-13T12:12:12;5.80;;;2.20;;
33188;SDS011;52601;53.070;10.600;2022-10-13T12:14:59;7.07;;;2.10;;
33188;SDS011;52601;53.070;10.600;2022-10-13T12:17:51;6.03;;;2.13;;
33188;SDS011;52601;53.070;10.600;2022-10-13T12:20:36;5.97;;;2.20;;
33188;SDS011;52601;53.070;10.600;2022-10-13T12:23:22;8.02;;;2.38;;
33188;SDS011;52601;53.070;10.600;2022-10-13T12:26:13;4.40;;;1.90;;
33188;SDS011;52601;53.070;10.600;2022-10-13T12:29:01;4.88;;;2.20;;
33188;SDS011;52601;53.070;10.600;2022-10-13T12:31:54;4.90;;;2.10;;
33188;SDS011;52601;53.070;10.600;2022-10-13T12:34:42;3.00;;;1.50;;
33188;SDS011;52601;53.070;10.600;2022-10-13T12:37:28;4.22;;;2.00;;
33188;SDS011;52601;53.070;10.600;2022-10-13T12:40:17;6.82;;;2.22;;
33188;SDS011;52601;53.070;10.600;2022-10-13T12:43:03;5.05;;;2.35;;
33188;SDS011;52601;53.070;10.600;2022-10-13T12:45:49;9.90;;;2.65;;
33188;SDS011;52601;53.070;10.600;2022-10-13T12:48:35;6.78;;;2.55;;
33188;SDS011;52601;53.070;10.600;2022-10-13T12:51:23;5.88;;;1.88;;
33188;SDS011;52601;53.070;10.600;2022-10-13T12:54:16;5.25;;;2.05;;
33188;SDS011;52601;53.070;10.600;2022-10-13T12:57:29;4.95;;;1.92;;
33188;SDS011;52601;53.070;10.600;2022-10-13T13:00:23;5.88;;;2.10;;
33188;SDS011;52601;53.070;10.600;2022-10-13T13:03:17;4.10;;;1.87;;
33188;SDS011;52601;53.070;10.600;2022-10-13T13:14:57;3.03;;;1.73;;
33188;SDS011;52601;53.070;10.600;2022-10-13T13:17:42;4.63;;;1.70;;
33188;SDS011;52601;53.070;10.600;2022-10-13T13:20:42;3.35;;;1.25;;
33188;SDS011;52601;53.070;10.600;2022-10-13T13:23:27;7.85;;;1.70;;
33188;SDS011;52601;53.070;10.600;2022-10-13T13:26:19;3.35;;;1.80;;
33188;SDS011;52601;53.070;10.600;2022-10-13T13:29:07;3.55;;;1.65;;
33188;SDS011;52601;53.070;10.600;2022-10-13T13:31:54;5.87;;;1.87;;
33188;SDS011;52601;53.070;10.600;2022-10-13T13:34:39;7.65;;;1.75;;
33188;SDS011;52601;53.070;10.600;2022-10-13T13:37:26;2.45;;;1.60;;
33188;SDS011;52601;53.070;10.600;2022-10-13T13:40:22;2.78;;;1.42;;
33188;SDS011;52601;53.070;10.600;2022-10-13T13:43:09;4.50;;;1.83;;
33188;SDS011;52601;53.070;10.600;2022-10-13T13:45:55;4.85;;;1.60;;
33188;SDS011;52601;53.070;10.600;2022-10-13T13:48:41;3.28;;;1.63;;
33188;SDS011;52601;53.070;10.600;2022-10-13T13:51:26;5.40;;;1.80;;
33188;SDS011;52601;53.070;10.600;2022-10-13T13:54:13;5.17;;;1.67;;
33188;SDS011;52601;53.070;10.600;2022-10-13T13:56:59;3.97;;;1.87;;
33188;SDS011;52601;53.070;10.600;2022-10-13T13:59:44;2.78;;;1.40;;
33188;SDS011;52601;53.070;10.600;2022-10-13T14:02:30;3.73;;;1.50;;
33188;SDS011;52601;53.070;10.600;2022-10-13T14:05:16;4.50;;;1.98;;
33188;SDS011;52601;53.070;10.600;2022-10-13T14:08:02;3.13;;;1.50;;
33188;SDS011;52601;53.070;10.600;2022-10-13T14:10:47;3.22;;;1.35;;
33188;SDS011;52601;53.070;10.600;2022-10-13T14:13:33;2.65;;;1.70;;
33188;SDS011;52601;53.070;10.600;2022-10-13T14:16:19;5.72;;;1.67;;
33188;SDS011;52601;53.070;10.600;2022-10-13T14:19:04;2.88;;;1.50;;
33188;SDS011;52601;53.070;10.600;2022-10-13T14:21:50;2.92;;;1.33;;
33188;SDS011;52601;53.070;10.600;2022-10-13T14:24:35;4.85;;;1.50;;
33188;SDS011;52601;53.070;10.600;2022-10-13T14:27:21;3.20;;;1.65;;
33188;SDS011;52601;53.070;10.600;2022-10-13T14:30:07;2.97;;;1.48;;
33188;SDS011;52601;53.070;10.600;2022-10-13T14:32:53;4.70;;;1.67;;
33188;SDS011;52601;53.070;10.600;2022-10-13T14:35:39;2.57;;;1.60;;
33188;SDS011;52601;53.070;10.600;2022-10-13T14:38:24;3.97;;;1.70;;
33188;SDS011;52601;53.070;10.600;2022-10-13T14:41:10;2.13;;;1.10;;
33188;SDS011;52601;53.070;10.600;2022-10-13T14:43:56;3.63;;;1.55;;
33188;SDS011;52601;53.070;10.600;2022-10-13T14:46:41;5.25;;;1.70;;
33188;SDS011;52601;53.070;10.600;2022-10-13T14:49:27;2.72;;;1.50;;
33188;SDS011;52601;53.070;10.600;2022-10-13T14:52:13;2.22;;;1.73;;
33188;SDS011;52601;53.070;10.600;2022-10-13T14:54:58;3.35;;;1.30;;
33188;SDS011;52601;53.070;10.600;2022-10-13T14:57:44;2.97;;;1.40;;
33188;SDS011;52601;53.070;10.600;2022-10-13T15:00:30;1.75;;;1.05;;
33188;SDS011;52601;53.070;10.600;2022-10-13T15:03:15;3.10;;;1.52;;
33188;SDS011;52601;53.070;10.600;2022-10-13T15:06:01;6.72;;;1.20;;
33188;SDS011;52601;53.070;10.600;2022-10-13T15:08:47;3.33;;;1.40;;
33188;SDS011;52601;53.070;10.600;2022-10-13T15:11:32;3.25;;;1.30;;
33188;SDS011;52601;53.070;10.600;2022-10-13T15:14:18;6.63;;;1.60;;
33188;SDS011;52601;53.070;10.600;2022-10-13T15:17:04;3.75;;;1.23;;
33188;SDS011;52601;53.070;10.600;2022-10-13T15:19:49;7.30;;;1.48;;
33188;SDS011;52601;53.070;10.600;2022-10-13T15:22:35;2.47;;;1.35;;
33188;SDS011;52601;53.070;10.600;2022-10-13T15:25:21;5.55;;;1.90;;
33188;SDS011;52601;53.070;10.600;2022-10-13T15:28:06;4.55;;;1.48;;
33188;SDS011;52601;53.070;10.600;2022-10-13T15:30:52;2.50;;;1.50;;
33188;SDS011;52601;53.070;10.600;2022-10-13T15:33:41;3.97;;;1.48;;
33188;SDS011;52601;53.070;10.600;2022-10-13T15:36:30;4.55;;;1.80;;
33188;SDS011;52601;53.070;10.600;2022-10-13T15:39:15;1.92;;;1.30;;
33188;SDS011;52601;53.070;10.600;2022-10-13T15:42:01;2.92;;;1.30;;
33188;SDS011;52601;53.070;10.600;2022-10-13T15:44:47;3.50;;;1.48;;
33188;SDS011;52601;53.070;10.600;2022-10-13T15:47:53;2.13;;;1.27;;
33188;SDS011;52601;53.070;10.600;2022-10-13T15:50:41;4.32;;;1.52;;
33188;SDS011;52601;53.070;10.600;2022-10-13T15:53:28;2.92;;;1.40;;
33188;SDS011;52601;53.070;10.600;2022-10-13T15:56:13;5.65;;;1.50;;
33188;SDS011;52601;53.070;10.600;2022-10-13T15:59:00;2.60;;;1.80;;
33188;SDS011;52601;53.070;10.600;2022-10-13T16:01:45;4.82;;;1.73;;
33188;SDS011;52601;53.070;10.600;2022-10-13T16:04:31;3.00;;;1.50;;
33188;SDS011;52601;53.070;10.600;2022-10-13T16:07:21;5.72;;;1.30;;
33188;SDS011;52601;53.070;10.600;2022-10-13T16:10:08;3.22;;;1.65;;
33188;SDS011;52601;53.070;10.600;2022-10-13T16:12:56;3.92;;;1.65;;
33188;SDS011;52601;53.070;10.600;2022-10-13T16:15:43;1.95;;;0.93;;
33188;SDS011;52601;53.070;10.600;2022-10-13T16:18:29;4.00;;;1.85;;
33188;SDS011;52601;53.070;10.600;2022-10-13T16:21:17;2.70;;;1.30;;
33188;SDS011;52601;53.070;10.600;2022-10-13T16:24:05;1.95;;;1.30;;
33188;SDS011;52601;53.070;10.600;2022-10-13T16:26:50;3.10;;;1.40;;
33188;SDS011;52601;53.070;10.600;2022-10-13T16:29:36;1.70;;;1.10;;
33188;SDS011;52601;53.070;10.600;2022-10-13T16:32:22;2.72;;;1.10;;
33188;SDS011;52601;53.070;10.600;2022-10-13T16:35:07;6.05;;;1.88;;
33188;SDS011;52601;53.070;10.600;2022-10-13T16:37:53;2.25;;;1.50;;
33188;SDS011;52601;53.070;10.600;2022-10-13T16:40:38;3.20;;;1.50;;
33188;SDS011;52601;53.070;10.600;2022-10-13T16:43:24;2.30;;;1.30;;
33188;SDS011;52601;53.070;10.600;2022-10-13T16:46:10;1.92;;;1.35;;
33188;SDS011;52601;53.070;10.600;2022-10-13T16:48:58;3.58;;;1.45;;
33188;SDS011;52601;53.070;10.600;2022-10-13T16:51:44;4.40;;;1.25;;
33188;SDS011;52601;53.070;10.600;2022-10-13T16:54:29;1.83;;;1.10;;
33188;SDS011;52601;53.070;10.600;2022-10-13T16:57:16;2.42;;;1.48;;
33188;SDS011;52601;53.070;10.600;2022-10-13T17:00:03;5.35;;;1.95;;
33188;SDS011;52601;53.070;10.600;2022-10-13T17:02:49;2.35;;;1.48;;
33188;SDS011;52601;53.070;10.600;2022-10-13T17:05:34;2.28;;;1.50;;
33188;SDS011;52601;53.070;10.600;2022-10-13T17:08:20;2.85;;;1.42;;
33188;SDS011;52601;53.070;10.600;2022-10-13T17:11:05;2.65;;;1.65;;
33188;SDS011;52601;53.070;10.600;2022-10-13T17:13:51;2.25;;;1.52;;
33188;SDS011;52601;53.070;10.600;2022-10-13T17:16:36;3.38;;;1.40;;
33188;SDS011;52601;53.070;10.600;2022-10-13T17:19:22;3.85;;;1.40;;
33188;SDS011;52601;53.070;10.600;2022-10-13T17:22:07;4.90;;;1.70;;
33188;SDS011;52601;53.070;10.600;2022-10-13T17:24:53;3.50;;;1.57;;
33188;SDS011;52601;53.070;10.600;2022-10-13T17:27:39;2.95;;;1.27;;
33188;SDS011;52601;53.070;10.600;2022-10-13T17:30:24;5.13;;;1.92;;
33188;SDS011;52601;53.070;10.600;2022-10-13T17:33:10;4.35;;;1.60;;
33188;SDS011;52601;53.070;10.600;2022-10-13T17:35:57;3.83;;;1.50;;
33188;SDS011;52601;53.070;10.600;2022-10-13T17:38:44;4.50;;;1.70;;
33188;SDS011;52601;53.070;10.600;2022-10-13T17:41:30;9.67;;;1.70;;
33188;SDS011;52601;53.070;10.600;2022-10-13T17:44:15;4.13;;;1.60;;
33188;SDS011;52601;53.070;10.600;2022-10-13T17:47:04;8.63;;;2.58;;
33188;SDS011;52601;53.070;10.600;2022-10-13T17:49:51;13.88;;;1.75;;
33188;SDS011;52601;53.070;10.600;2022-10-13T17:52:36;4.40;;;2.05;;
33188;SDS011;52601;53.070;10.600;2022-10-13T17:55:22;4.93;;;1.67;;
33188;SDS011;52601;53.070;10.600;2022-10-13T17:58:07;3.40;;;1.67;;
33188;SDS011;52601;53.070;10.600;2022-10-13T18:00:53;5.50;;;2.00;;
33188;SDS011;52601;53.070;10.600;2022-10-13T18:03:58;4.03;;;1.50;;
33188;SDS011;52601;53.070;10.600;2022-10-13T18:06:47;2.58;;;1.50;;